Merritt, Washington
Current Conditions -  °F | °C
As of 3:55 PM on Monday 20 Oct 2014 (Local Time) from KEAT Reporting Station
Overcast Overcast  
Wind Chill: 57°   Ceiling: 9000
Heat Index: 57°   Visibility: 7mi
Dew Point: 52°   Wind: 7mph
Humidity: 83%   Direction: 250°WSW
Pressure: 29.76"   Gusts: NA
Location:  47.7866°N, 120.856°W
Report Text: KEAT 202255Z AUTO 25006KT 7SM OVC090 14/11 A2976 RMK AO2 RAE16 SLP077 P0000 T01390111
Loading
Personal Weather Stations






























Interactive Weather Map
Tropical Storm Tracking
New forecast layout! Learn more

10-Day Weather Forecast

Advertisements
Track Severe Weather on mobile